Airfield :
LOGIN :

Register | Disclaimer

   EN    FR    IT 

 










Legend :    VFR   Marginal VFR   IFR   Intensive IFR   Very Intensive IFR
Visi :
Ceiling :
>= 8 km
>= 3000ft
5 to 8 km
1000 to 3000 ft
1500m to 5 km
500 to 1000 ft
800 to 1500m
200 to 500 ft
< 800m
< 200 ft
Symbols :   Thunderstorms  Fog  Heavy snow  Heavy precipitations  Wind > 20 kt
SIGMETs :     Misc.  Thunderstorms  Icing  Turbulence  Mountain Waves  Volcanic Ashes






- Airport Elevation : 517 ft
- IATA code : GML


UKKM - Antonov

CURRENT METAR :
  • 281500Z 14003MPS 1400 1200SE R15/1700N BR OVC001 00/00 Q1008 R15/CLRD55 NOSIG

EXPIRED METARs :
  • 281433Z 16004MPS 1400 1200SE R15/P2000D BR BKN002 00/00 Q1008 R15/CLRD55 NOSIG
  • 281404Z 15003MPS 4900 BR NSC 02/01 Q1008 R15/CLRD55 NOSIG
  • 281330Z 16003MPS 6000 NSC 03/00 Q1008 R15/CLRD55 NOSIG
  • 281300Z 16002MPS 110V190 6000 NSC 04/M00 Q1008 R15/CLRD55 NOSIG
  • 281230Z 19002MPS 9000 NSC 05/M00 Q1008 R15/CLRD55 NOSIG

TAF AMD TAF UKKM
Valid from the 28 at 14:00 until the 29 at 12:00 UTC


281430Z 2814/2912 15003MPS 1400 BR OVC002 TX04/2912Z TN00/2903Z
TEMPO 2815/2908 0300 FG VV001
BECMG 2908/2910 16006MPS 4000 BR OVC005
TEMPO 2910/2912 2100 -RA BR OVC004



MET'MAP, your aeronautical weather chart ! - Copyright ORBIFLY December 2007 - Disclaimer

ORBIFLY MET'MAP TEAM :

Programming & Development : Alexandra Zaïnal
Concept & original design : Baudouin d'Aumeries
Assistance for programming : Marc-Olivier Méhu
Technical & hardware support : Manuel Goepfert

Contact : metmap@orbifly.com




SOURCES & CREDITS :

   NOAA